Time;durP1;ratioP1;P1;durP2;ratioP2;P2;SDS_P1;SDS_P2;PMS_P1;PMS_P2;Temp;Humidity;BMP_temperature;BMP_pressure;BME280_temperature;BME280_humidity;BME280_pressure;Samples;Min_cycle;Max_cycle;Signal;HPM_P1;HPM_P2
2023/10/04 00:01:09;;;;;;;16.92;11.50;;;19.70;92.30;;;;;;5072811;28;20384;-71
2023/10/04 00:03:36;;;;;;;18.17;12.05;;;19.70;92.40;;;;;;5072594;28;20020;-71
2023/10/04 00:06:02;;;;;;;12.52;11.18;;;19.60;92.40;;;;;;5072813;28;20073;-72
2023/10/04 00:08:29;;;;;;;16.00;11.60;;;19.60;92.40;;;;;;5072747;28;20111;-72
2023/10/04 00:10:54;;;;;;;16.23;11.73;;;19.60;92.40;;;;;;5072387;28;20036;-70
2023/10/04 00:13:20;;;;;;;14.85;11.07;;;19.60;92.30;;;;;;5072363;28;20028;-72
2023/10/04 00:15:46;;;;;;;19.50;11.98;;;19.60;92.50;;;;;;5072346;28;20074;-72
2023/10/04 00:18:11;;;;;;;12.60;11.18;;;19.50;92.20;;;;;;5072468;28;20043;-71
2023/10/04 00:20:38;;;;;;;18.65;11.52;;;19.50;92.20;;;;;;5072429;28;20479;-71
2023/10/04 00:23:05;;;;;;;14.55;10.95;;;19.50;92.20;;;;;;5072198;28;20036;-72
2023/10/04 00:25:33;;;;;;;15.77;11.82;;;19.50;92.20;;;;;;5075995;28;20105;-72
2023/10/04 00:27:59;;;;;;;13.65;12.20;;;19.50;92.20;;;;;;5076451;28;20040;-71
2023/10/04 00:30:28;;;;;;;18.70;13.13;;;19.50;92.20;;;;;;5076183;28;20095;-70
2023/10/04 00:32:54;;;;;;;16.80;12.48;;;19.50;92.30;;;;;;5074777;28;20020;-71
2023/10/04 00:35:21;;;;;;;14.10;12.70;;;19.50;92.20;;;;;;5075825;28;20036;-71
2023/10/04 00:37:55;;;;;;;20.67;13.90;;;19.40;92.20;;;;;;5076059;28;20090;-71
2023/10/04 00:40:27;;;;;;;16.15;11.95;;;19.30;92.20;;;;;;5076330;28;20021;-72
2023/10/04 00:42:56;;;;;;;22.10;13.32;;;19.30;92.30;;;;;;5076336;28;20028;-71
2023/10/04 00:45:22;;;;;;;16.45;12.27;;;19.30;92.30;;;;;;5076308;28;20074;-71
2023/10/04 00:47:51;;;;;;;14.27;11.73;;;19.30;92.30;;;;;;5075737;28;20049;-71
2023/10/04 00:50:26;;;;;;;20.20;13.13;;;19.30;92.50;;;;;;5076172;28;20416;-70
2023/10/04 00:53:03;;;;;;;15.00;13.40;;;19.30;92.50;;;;;;5076163;28;20028;-70
2023/10/04 00:55:31;;;;;;;17.52;13.48;;;19.20;92.60;;;;;;5075754;28;20028;-70
2023/10/04 00:57:57;;;;;;;14.85;13.27;;;19.20;92.70;;;;;;5074387;28;20048;-72
2023/10/04 01:00:24;;;;;;;15.25;13.63;;;19.10;92.70;;;;;;5073335;28;20071;-70
2023/10/04 01:02:50;;;;;;;21.63;12.32;;;19.10;92.80;;;;;;5073185;28;20380;-71
2023/10/04 01:05:17;;;;;;;16.00;11.88;;;19.10;92.80;;;;;;5074755;28;20024;-71
2023/10/04 01:07:44;;;;;;;14.68;11.95;;;19.10;92.90;;;;;;5075683;28;20013;-71
2023/10/04 01:10:15;;;;;;;14.88;11.25;;;19.10;92.90;;;;;;5075280;28;20032;-71
2023/10/04 01:12:43;;;;;;;16.30;11.60;;;19.10;92.90;;;;;;5075111;28;20027;-72
2023/10/04 01:17:54;;;;;;;15.35;11.20;;;19.20;92.70;;;;;;5075736;28;20074;-71
2023/10/04 01:20:27;;;;;;;13.32;10.25;;;19.20;92.70;;;;;;5075324;28;20365;-71
2023/10/04 01:22:55;;;;;;;13.45;10.50;;;19.20;92.70;;;;;;5075644;28;20055;-70
2023/10/04 01:25:20;;;;;;;11.98;10.13;;;19.20;92.70;;;;;;5075515;28;20078;-71
2023/10/04 01:27:47;;;;;;;15.90;11.25;;;19.20;92.70;;;;;;5075397;28;20021;-71
2023/10/04 01:30:13;;;;;;;15.60;11.20;;;19.10;92.50;;;;;;5075005;28;20028;-70
2023/10/04 01:32:39;;;;;;;13.85;10.65;;;19.20;92.50;;;;;;5075280;28;20028;-71
2023/10/04 01:35:05;;;;;;;19.77;13.02;;;19.10;92.20;;;;;;5074232;28;20043;-71
2023/10/04 01:37:35;;;;;;;18.00;11.50;;;19.10;92.20;;;;;;5074755;28;20023;-71
2023/10/04 01:40:00;;;;;;;17.30;11.93;;;19.00;92.20;;;;;;5074988;28;20103;-70
2023/10/04 01:42:26;;;;;;;12.98;11.30;;;19.00;92.30;;;;;;5075194;28;20103;-70
2023/10/04 01:44:54;;;;;;;16.33;12.52;;;18.90;92.30;;;;;;5074801;28;20036;-70
2023/10/04 01:47:21;;;;;;;16.13;12.60;;;18.90;92.40;;;;;;5075118;28;20047;-71
2023/10/04 01:49:47;;;;;;;15.13;13.35;;;18.80;92.50;;;;;;5075120;28;20020;-71
2023/10/04 01:52:13;;;;;;;16.33;12.85;;;18.80;92.50;;;;;;5075089;28;20031;-71
2023/10/04 01:54:39;;;;;;;14.13;12.75;;;18.80;92.60;;;;;;5074884;28;20054;-71
2023/10/04 01:57:05;;;;;;;17.20;11.75;;;18.80;92.60;;;;;;5074812;28;20487;-71
2023/10/04 01:59:31;;;;;;;17.67;12.45;;;18.70;92.60;;;;;;5074804;28;20025;-67
2023/10/04 02:01:58;;;;;;;14.13;12.10;;;18.70;92.60;;;;;;5074845;28;20035;-72
2023/10/04 02:04:23;;;;;;;20.13;12.73;;;18.70;92.60;;;;;;5074593;28;20052;-71
2023/10/04 02:06:49;;;;;;;17.35;12.10;;;18.70;92.70;;;;;;5074390;28;20437;-71
2023/10/04 02:09:16;;;;;;;14.00;12.55;;;18.70;92.70;;;;;;5074339;28;20099;-71
2023/10/04 02:11:43;;;;;;;13.85;12.40;;;18.60;92.70;;;;;;5074524;28;20032;-72
2023/10/04 02:14:10;;;;;;;15.02;12.52;;;18.60;92.70;;;;;;5074174;28;20042;-71
2023/10/04 02:16:36;;;;;;;15.32;11.60;;;18.60;92.70;;;;;;5072380;28;20067;-71
2023/10/04 02:19:01;;;;;;;16.00;12.00;;;18.60;92.70;;;;;;5074514;28;20437;-71
2023/10/04 02:21:27;;;;;;;13.32;11.80;;;18.60;92.70;;;;;;5074497;28;20036;-70
2023/10/04 02:23:53;;;;;;;15.95;11.77;;;18.60;92.70;;;;;;5074434;28;20028;-71
2023/10/04 02:26:22;;;;;;;13.73;12.15;;;18.60;92.80;;;;;;5074286;28;20033;-71
2023/10/04 02:28:51;;;;;;;18.42;11.73;;;18.60;92.80;;;;;;5073998;28;20021;-70
2023/10/04 02:31:21;;;;;;;13.88;12.05;;;18.50;92.90;;;;;;5073874;28;20024;-70
2023/10/04 02:33:50;;;;;;;14.15;11.80;;;18.50;92.90;;;;;;5074000;28;20035;-71
2023/10/04 02:36:15;;;;;;;13.32;10.75;;;18.50;92.90;;;;;;5073875;28;20036;-71
2023/10/04 02:38:41;;;;;;;13.73;11.15;;;18.50;93.00;;;;;;5074076;28;20094;-69
2023/10/04 02:41:10;;;;;;;13.32;10.65;;;18.50;93.00;;;;;;5073719;28;20029;-71
2023/10/04 02:43:37;;;;;;;13.98;9.82;;;18.60;93.10;;;;;;5073720;28;20017;-71
2023/10/04 02:46:03;;;;;;;13.32;9.68;;;18.60;93.10;;;;;;5073845;28;20036;-70
2023/10/04 02:48:32;;;;;;;12.93;10.52;;;18.60;93.10;;;;;;5073723;28;20048;-71
2023/10/04 02:50:58;;;;;;;15.90;10.70;;;18.60;93.10;;;;;;5073809;28;20036;-71
2023/10/04 02:53:27;;;;;;;15.52;10.05;;;18.60;93.10;;;;;;5073722;28;20475;-71
2023/10/04 02:55:54;;;;;;;14.85;10.68;;;18.60;93.20;;;;;;5073648;28;20043;-71
2023/10/04 02:58:21;;;;;;;12.25;10.20;;;18.60;93.10;;;;;;5073640;28;20020;-71
2023/10/04 03:00:49;;;;;;;11.68;9.95;;;18.60;93.10;;;;;;5073929;28;20120;-71
2023/10/04 03:03:21;;;;;;;12.02;9.70;;;18.60;93.10;;;;;;5073180;28;20025;-71
2023/10/04 03:05:48;;;;;;;17.67;10.43;;;18.60;93.00;;;;;;5072261;28;20032;-71
2023/10/04 03:08:17;;;;;;;12.15;10.38;;;18.70;93.00;;;;;;5073313;28;20457;-71
2023/10/04 03:10:45;;;;;;;13.93;9.98;;;18.60;92.90;;;;;;5073420;28;20484;-70
2023/10/04 03:13:12;;;;;;;13.73;11.20;;;18.60;92.90;;;;;;5073143;28;20031;-70
2023/10/04 03:15:39;;;;;;;17.55;11.98;;;18.60;92.80;;;;;;5073283;28;20043;-71
2023/10/04 03:18:13;;;;;;;15.32;9.95;;;18.60;92.70;;;;;;5073329;28;20020;-70
2023/10/04 03:20:45;;;;;;;14.10;11.30;;;18.60;92.60;;;;;;5073387;28;20020;-71
2023/10/04 03:23:11;;;;;;;17.02;11.30;;;18.60;92.70;;;;;;5073258;28;20103;-71
2023/10/04 03:25:37;;;;;;;16.13;11.10;;;18.50;92.60;;;;;;5073021;28;20195;-71
2023/10/04 03:28:03;;;;;;;19.58;11.55;;;18.50;92.60;;;;;;5073281;28;20024;-72
2023/10/04 03:30:31;;;;;;;15.73;11.30;;;18.40;92.60;;;;;;5073115;28;20029;-71
2023/10/04 03:32:57;;;;;;;17.38;11.13;;;18.40;92.60;;;;;;5073067;28;20510;-71
2023/10/04 03:35:26;;;;;;;12.95;11.65;;;18.40;92.60;;;;;;5072867;28;20064;-70
2023/10/04 03:37:58;;;;;;;14.00;10.40;;;18.40;92.60;;;;;;5072872;28;20040;-70
2023/10/04 03:40:34;;;;;;;;;;;18.40;92.90;;;;;;5073434;28;20031;-70
2023/10/04 03:43:06;;;;;;;15.13;12.38;;;18.30;92.80;;;;;;5072048;28;19904;-71
2023/10/04 03:45:40;;;;;;;;;;;18.30;92.80;;;;;;5073355;28;20024;-71
2023/10/04 03:48:14;;;;;;;15.77;11.98;;;18.30;92.70;;;;;;5072638;28;19916;-71
2023/10/04 03:50:40;;;;;;;17.27;12.45;;;18.30;92.70;;;;;;5072797;28;20021;-71
2023/10/04 03:53:07;;;;;;;14.77;12.18;;;18.20;92.80;;;;;;5072735;28;20056;-71
2023/10/04 03:55:33;;;;;;;14.95;12.55;;;18.10;92.80;;;;;;5072821;28;20103;-71
2023/10/04 03:57:59;;;;;;;18.20;12.77;;;18.10;92.80;;;;;;5072830;28;20116;-71
2023/10/04 04:00:25;;;;;;;17.85;12.95;;;18.10;92.90;;;;;;5072609;28;20032;-71
2023/10/04 04:02:51;;;;;;;17.63;13.55;;;18.10;93.00;;;;;;5072668;28;20029;-71
2023/10/04 04:05:21;;;;;;;13.93;12.48;;;18.10;93.10;;;;;;5072860;28;20055;-70
2023/10/04 04:07:52;;;;;;;20.38;12.48;;;18.10;93.20;;;;;;5072698;28;20377;-71
2023/10/04 04:10:19;;;;;;;19.27;11.83;;;18.10;93.20;;;;;;5072872;28;20376;-70
2023/10/04 04:12:46;;;;;;;16.38;12.85;;;18.10;93.20;;;;;;5072768;28;20734;-71
2023/10/04 04:15:14;;;;;;;15.20;11.90;;;18.10;93.20;;;;;;5072598;28;20037;-71
2023/10/04 04:17:41;;;;;;;12.90;11.45;;;18.10;93.30;;;;;;5072194;28;20025;-70
2023/10/04 04:20:16;;;;;;;15.73;12.13;;;18.10;93.20;;;;;;5072617;28;20017;-70
2023/10/04 04:22:50;;;;;;;18.15;12.80;;;18.00;93.20;;;;;;5072611;28;20024;-71
2023/10/04 04:25:23;;;;;;;16.33;12.73;;;18.00;93.10;;;;;;5072445;28;20021;-70
2023/10/04 04:27:50;;;;;;;15.48;12.15;;;18.00;93.20;;;;;;5072138;28;20028;-70
2023/10/04 04:30:23;;;;;;;18.48;12.73;;;18.00;93.30;;;;;;5072243;28;20179;-71
2023/10/04 04:32:53;;;;;;;19.23;11.57;;;18.00;93.30;;;;;;5072420;28;20040;-71
2023/10/04 04:35:26;;;;;;;14.13;12.35;;;18.00;93.40;;;;;;5072170;28;20031;-70
2023/10/04 04:37:57;;;;;;;16.95;13.18;;;18.00;93.50;;;;;;5072159;28;20031;-70
2023/10/04 04:40:30;;;;;;;16.77;13.13;;;18.00;93.50;;;;;;5071784;28;20099;-71
2023/10/04 04:43:18;;;;;;;16.42;13.25;;;18.00;93.60;;;;;;5071683;28;20154;-69
2023/10/04 04:45:48;;;;;;;18.17;13.77;;;18.10;93.70;;;;;;5072107;28;20032;-70
2023/10/04 04:48:15;;;;;;;17.40;12.10;;;18.10;93.80;;;;;;5072183;28;20041;-71
2023/10/04 04:50:41;;;;;;;20.33;12.43;;;18.10;93.70;;;;;;5072247;28;20103;-70
2023/10/04 04:53:14;;;;;;;15.82;12.63;;;18.10;93.70;;;;;;5072122;28;20029;-71
2023/10/04 04:55:40;;;;;;;14.10;11.55;;;18.10;93.70;;;;;;5072248;28;20029;-72
2023/10/04 04:58:06;;;;;;;15.88;11.73;;;18.20;93.80;;;;;;5072217;28;20100;-71
2023/10/04 05:00:33;;;;;;;16.70;11.98;;;18.20;93.80;;;;;;5072124;28;20067;-70
2023/10/04 05:03:00;;;;;;;15.48;12.52;;;18.20;93.80;;;;;;5071436;28;20060;-71
2023/10/04 05:05:29;;;;;;;15.90;12.50;;;18.20;93.90;;;;;;5071687;28;20017;-68
2023/10/04 05:07:55;;;;;;;15.13;12.40;;;18.20;93.90;;;;;;5072100;28;20020;-69
2023/10/04 05:10:25;;;;;;;20.98;11.70;;;18.30;94.10;;;;;;5072331;28;20422;-70
2023/10/04 05:12:52;;;;;;;16.98;12.73;;;18.30;94.10;;;;;;5075746;28;20025;-71
2023/10/04 05:15:51;;;;;;;15.77;12.25;;;18.20;94.00;;;;;;5075523;28;20041;-70
2023/10/04 05:18:17;;;;;;;17.30;12.60;;;18.30;94.00;;;;;;5073293;28;20035;-70
2023/10/04 05:20:43;;;;;;;13.85;12.02;;;18.30;93.90;;;;;;5075922;28;20486;-70
2023/10/04 05:23:10;;;;;;;19.13;12.82;;;18.30;93.90;;;;;;5075315;28;20024;-70
2023/10/04 05:25:36;;;;;;;19.10;12.25;;;18.30;93.80;;;;;;5075436;28;20028;-71
2023/10/04 05:28:09;;;;;;;17.95;11.90;;;18.30;93.90;;;;;;5075354;28;20511;-70
2023/10/04 05:30:37;;;;;;;15.77;13.40;;;18.30;93.90;;;;;;5075367;28;20046;-71
2023/10/04 05:33:03;;;;;;;16.02;13.27;;;18.30;93.90;;;;;;5075494;28;20111;-71
2023/10/04 05:35:28;;;;;;;15.85;12.07;;;18.30;93.90;;;;;;5075123;28;20464;-71
2023/10/04 05:37:54;;;;;;;19.40;13.40;;;18.30;94.00;;;;;;5075314;28;20104;-71
2023/10/04 05:40:25;;;;;;;18.02;12.27;;;18.40;94.00;;;;;;5074984;28;20107;-71
2023/10/04 05:42:53;;;;;;;17.55;12.30;;;18.40;94.10;;;;;;5075009;28;20064;-71
2023/10/04 05:45:23;;;;;;;18.98;12.68;;;18.40;94.00;;;;;;5075049;28;20483;-71
2023/10/04 05:47:50;;;;;;;17.73;13.15;;;18.40;94.10;;;;;;5074281;28;20076;-70
2023/10/04 05:50:22;;;;;;;16.48;12.63;;;18.40;94.20;;;;;;5074721;28;20025;-71
2023/10/04 05:52:48;;;;;;;19.52;12.90;;;18.40;94.30;;;;;;5074648;28;20440;-71
2023/10/04 05:55:16;;;;;;;15.50;11.85;;;18.40;94.20;;;;;;5074872;28;20112;-70
2023/10/04 05:57:46;;;;;;;13.70;11.32;;;18.40;94.40;;;;;;5074592;28;20033;-71
2023/10/04 06:02:53;;;;;;;17.58;10.90;;;18.50;94.20;;;;;;5075051;28;20060;-71
2023/10/04 06:05:20;;;;;;;30.50;13.07;;;18.60;94.20;;;;;;5074508;28;20484;-70
2023/10/04 06:07:49;;;;;;;31.65;13.48;;;18.60;94.10;;;;;;5074522;28;20016;-75
2023/10/04 06:10:16;;;;;;;21.30;13.80;;;18.60;94.10;;;;;;5074552;28;20062;-74
2023/10/04 06:12:43;;;;;;;35.85;14.50;;;18.60;94.10;;;;;;5074310;28;20021;-74
2023/10/04 06:15:14;;;;;;;28.98;13.10;;;18.60;94.10;;;;;;5074303;28;20044;-70
2023/10/04 06:17:43;;;;;;;21.15;12.63;;;18.60;94.20;;;;;;5074243;28;20031;-78
2023/10/04 06:20:32;;;;;;;27.50;12.10;;;18.60;94.30;;;;;;5073316;28;20021;-80
2023/10/04 06:23:06;;;;;;;20.98;12.82;;;18.60;94.40;;;;;;5073429;28;20389;-72
2023/10/04 06:25:34;;;;;;;21.30;12.70;;;18.60;94.40;;;;;;5073747;28;20097;-72
2023/10/04 06:28:03;;;;;;;15.82;12.07;;;18.60;94.40;;;;;;5071738;28;20020;-70
2023/10/04 06:30:32;;;;;;;21.63;12.55;;;18.60;94.40;;;;;;5089162;28;20020;-71
2023/10/04 06:33:02;;;;;;;23.55;13.27;;;18.70;94.50;;;;;;5072991;28;20113;-71
2023/10/04 06:35:28;;;;;;;23.13;12.75;;;18.70;94.60;;;;;;5053209;28;20069;-71
2023/10/04 06:37:56;;;;;;;27.38;12.65;;;18.70;94.60;;;;;;5052923;28;20025;-72
2023/10/04 06:40:24;;;;;;;21.85;12.85;;;18.80;94.60;;;;;;5053235;28;20125;-72
2023/10/04 06:42:51;;;;;;;23.00;12.88;;;18.80;94.60;;;;;;5052164;28;20053;-73
2023/10/04 06:45:22;;;;;;;16.17;12.00;;;18.80;94.50;;;;;;5053256;28;20040;-68
2023/10/04 06:47:49;;;;;;;14.65;10.88;;;18.80;94.50;;;;;;5052920;28;20060;-71
2023/10/04 06:50:20;;;;;;;19.85;11.55;;;18.90;94.50;;;;;;5053163;28;20014;-72
2023/10/04 06:52:50;;;;;;;13.20;11.77;;;18.90;94.50;;;;;;5053175;28;20476;-71
2023/10/04 06:55:18;;;;;;;20.98;11.95;;;18.90;94.40;;;;;;5053488;28;20036;-72
2023/10/04 06:57:45;;;;;;;15.57;11.93;;;18.90;94.50;;;;;;5053400;28;20420;-73
2023/10/04 07:00:14;;;;;;;17.02;11.68;;;19.00;94.60;;;;;;5052105;28;20710;-72
2023/10/04 07:02:46;;;;;;;19.30;12.02;;;19.00;94.70;;;;;;5053315;28;20039;-72
2023/10/04 07:05:14;;;;;;;16.45;12.55;;;19.10;94.80;;;;;;5053087;28;20035;-73
2023/10/04 07:07:44;;;;;;;19.70;11.60;;;19.10;94.80;;;;;;5053455;28;20029;-73
2023/10/04 07:10:14;;;;;;;15.75;11.25;;;19.10;94.90;;;;;;5053452;28;20029;-73
2023/10/04 07:12:41;;;;;;;16.13;11.73;;;19.10;95.00;;;;;;5053240;28;20554;-74
2023/10/04 07:15:08;;;;;;;16.83;11.70;;;19.10;95.00;;;;;;5052936;28;20039;-74
2023/10/04 07:17:34;;;;;;;16.83;11.45;;;19.10;94.90;;;;;;5053171;28;20481;-74
2023/10/04 07:19:59;;;;;;;14.55;10.05;;;19.20;94.90;;;;;;5053058;28;20384;-74
2023/10/04 07:22:29;;;;;;;14.48;10.98;;;19.20;94.80;;;;;;5053059;28;20021;-75
2023/10/04 07:24:59;;;;;;;14.45;10.63;;;19.20;94.40;;;;;;5052889;28;20033;-74
2023/10/04 07:27:26;;;;;;;17.27;11.00;;;19.30;94.30;;;;;;5051889;28;20495;-73
2023/10/04 07:29:53;;;;;;;14.75;11.25;;;19.30;94.30;;;;;;5053234;28;20385;-74
2023/10/04 07:32:20;;;;;;;14.20;10.88;;;19.20;94.30;;;;;;5053130;28;20036;-74
2023/10/04 07:34:46;;;;;;;16.48;11.75;;;19.30;94.30;;;;;;5052412;28;20029;-73
2023/10/04 07:37:12;;;;;;;15.60;11.32;;;19.30;94.40;;;;;;5052993;28;20487;-73
2023/10/04 07:39:38;;;;;;;17.77;11.23;;;19.30;94.30;;;;;;5052443;28;20025;-74
2023/10/04 07:42:04;;;;;;;17.80;11.05;;;19.40;94.10;;;;;;5052865;28;20103;-74
2023/10/04 07:44:30;;;;;;;17.92;10.82;;;19.30;93.90;;;;;;5052941;28;20052;-73
2023/10/04 07:46:59;;;;;;;13.70;9.63;;;19.40;93.90;;;;;;5052661;28;20469;-73
2023/10/04 07:49:26;;;;;;;13.13;9.45;;;19.40;94.00;;;;;;5052653;28;20543;-73
2023/10/04 07:51:52;;;;;;;16.20;9.48;;;19.40;93.60;;;;;;5051474;28;20112;-74
2023/10/04 07:54:19;;;;;;;15.57;8.73;;;19.40;93.60;;;;;;5052388;28;20033;-74
2023/10/04 07:56:45;;;;;;;12.73;8.75;;;19.50;93.70;;;;;;5052016;28;20044;-74
2023/10/04 07:59:11;;;;;;;15.13;9.40;;;19.50;93.60;;;;;;5050466;28;20029;-74
2023/10/04 08:01:40;;;;;;;18.65;8.52;;;19.60;93.50;;;;;;5050335;28;20029;-74
2023/10/04 08:04:09;;;;;;;13.55;8.35;;;19.60;93.30;;;;;;5050561;28;20021;-74
2023/10/04 08:06:35;;;;;;;15.07;8.45;;;19.70;93.10;;;;;;5050598;28;20040;-73
2023/10/04 08:09:04;;;;;;;12.55;8.00;;;19.60;93.00;;;;;;5049602;28;20521;-74
2023/10/04 08:11:33;;;;;;;14.32;7.93;;;19.70;92.70;;;;;;5050887;28;20530;-74
2023/10/04 08:13:59;;;;;;;12.93;7.20;;;19.80;92.30;;;;;;5051493;28;20115;-73
2023/10/04 08:16:27;;;;;;;10.77;7.18;;;19.90;92.10;;;;;;5052324;28;20057;-74
2023/10/04 08:18:55;;;;;;;15.32;7.07;;;19.90;91.70;;;;;;5052553;28;20032;-74
2023/10/04 08:21:22;;;;;;;15.73;7.60;;;20.00;91.50;;;;;;5052594;28;20107;-74
2023/10/04 08:23:49;;;;;;;8.07;6.82;;;20.10;91.40;;;;;;5052640;28;20028;-73
2023/10/04 08:26:15;;;;;;;12.45;7.22;;;20.10;91.40;;;;;;5052535;28;20032;-73
2023/10/04 08:28:42;;;;;;;8.68;6.38;;;20.20;91.30;;;;;;5052350;28;20063;-73
2023/10/04 08:31:16;;;;;;;19.73;6.68;;;20.20;91.00;;;;;;5052601;28;20083;-75
2023/10/04 08:33:43;;;;;;;11.73;6.65;;;20.30;90.70;;;;;;5052378;28;20021;-73
2023/10/04 08:36:18;;;;;;;11.80;6.30;;;20.30;90.40;;;;;;5051009;28;20495;-73
2023/10/04 08:38:48;;;;;;;17.00;6.75;;;20.30;90.20;;;;;;5052216;28;20036;-73
2023/10/04 08:41:16;;;;;;;11.27;6.53;;;20.40;90.10;;;;;;5052176;28;20469;-72
2023/10/04 08:43:44;;;;;;;16.25;6.40;;;20.40;90.00;;;;;;5052444;28;20026;-73
2023/10/04 08:46:11;;;;;;;11.88;6.25;;;20.40;90.00;;;;;;5055534;28;20031;-73
2023/10/04 08:48:36;;;;;;;11.75;6.82;;;20.50;90.10;;;;;;5054515;28;20056;-73
2023/10/04 08:51:09;;;;;;;10.60;6.40;;;20.50;89.80;;;;;;5056235;28;20025;-73
2023/10/04 08:53:44;;;;;;;10.05;6.43;;;20.60;89.30;;;;;;5056100;28;20443;-74
2023/10/04 08:56:16;;;;;;;14.48;6.90;;;20.60;89.40;;;;;;5056107;28;20025;-72
2023/10/04 08:58:43;;;;;;;11.50;6.18;;;20.60;89.10;;;;;;5054699;28;20025;-73
2023/10/04 09:01:11;;;;;;;9.43;6.50;;;20.60;88.90;;;;;;5056172;28;20033;-73
2023/10/04 09:03:40;;;;;;;13.77;7.50;;;20.70;88.80;;;;;;5056381;28;20029;-73
2023/10/04 09:06:10;;;;;;;12.73;6.53;;;20.70;88.10;;;;;;5055915;28;20056;-72
2023/10/04 09:08:40;;;;;;;9.40;6.90;;;20.80;87.70;;;;;;5055712;28;20024;-73
2023/10/04 09:11:10;;;;;;;11.05;6.40;;;20.80;87.40;;;;;;5055677;28;20055;-74
2023/10/04 09:13:43;;;;;;;16.85;7.25;;;20.80;87.70;;;;;;5055559;28;20055;-73
2023/10/04 09:16:28;;;;;;;13.40;6.55;;;20.90;87.80;;;;;;5055619;28;20041;-73
2023/10/04 09:19:14;;;;;;;10.52;6.47;;;20.90;87.90;;;;;;5055795;28;20029;-73
2023/10/04 09:21:41;;;;;;;15.70;6.47;;;20.90;87.90;;;;;;5055605;28;20025;-73
2023/10/04 09:24:09;;;;;;;10.40;6.30;;;20.90;88.10;;;;;;5055620;28;20021;-73
2023/10/04 09:26:54;;;;;;;9.20;6.38;;;20.90;88.50;;;;;;5055577;28;20059;-73
2023/10/04 09:29:36;;;;;;;11.02;6.72;;;20.90;87.70;;;;;;5055298;28;20094;-73
2023/10/04 09:32:03;;;;;;;15.00;6.43;;;21.00;87.30;;;;;;5055142;28;20418;-73
2023/10/04 09:34:30;;;;;;;14.38;6.28;;;21.00;87.30;;;;;;5055358;28;20483;-73
2023/10/04 09:36:56;;;;;;;10.35;6.18;;;21.00;87.50;;;;;;5055309;28;20078;-73
2023/10/04 09:39:24;;;;;;;12.77;6.70;;;21.00;87.50;;;;;;5055196;28;20063;-73
2023/10/04 09:41:54;;;;;;;8.65;6.45;;;21.00;87.90;;;;;;5055348;28;20036;-73
2023/10/04 09:44:27;;;;;;;9.23;6.20;;;21.00;88.10;;;;;;5055124;28;20024;-73
2023/10/04 09:47:01;;;;;;;12.68;6.32;;;21.10;88.00;;;;;;5054902;28;20040;-74
2023/10/04 09:49:31;;;;;;;10.90;6.28;;;21.10;88.00;;;;;;5055162;28;20021;-73
2023/10/04 09:52:03;;;;;;;9.43;5.80;;;21.10;88.60;;;;;;5054809;28;20424;-73
2023/10/04 09:54:29;;;;;;;11.70;5.90;;;21.10;88.70;;;;;;5054937;28;20385;-73
2023/10/04 09:56:57;;;;;;;9.40;5.68;;;21.10;88.70;;;;;;5054016;28;20101;-74
2023/10/04 09:59:23;;;;;;;13.10;6.10;;;21.20;89.00;;;;;;5054829;28;20469;-73
2023/10/04 10:01:55;;;;;;;8.00;5.15;;;21.30;88.40;;;;;;5054635;28;20029;-72
2023/10/04 10:04:29;;;;;;;7.22;5.43;;;21.40;86.90;;;;;;5054563;28;20116;-72
2023/10/04 10:07:09;;;;;;;13.07;5.55;;;21.50;86.90;;;;;;5054464;28;20024;-73
2023/10/04 10:09:58;;;;;;;11.95;5.03;;;21.50;87.80;;;;;;5054552;28;20025;-73
2023/10/04 10:12:32;;;;;;;11.15;5.00;;;21.70;86.70;;;;;;5048224;28;20037;-73
2023/10/04 10:15:01;;;;;;;9.38;4.70;;;;;;;;;;5054772;28;20026;-73
2023/10/04 10:17:30;;;;;;;9.88;4.55;;;22.00;86.20;;;;;;5054360;28;20108;-73
2023/10/04 10:19:57;;;;;;;18.20;6.13;;;22.10;84.30;;;;;;5054452;28;20584;-73
2023/10/04 10:22:22;;;;;;;7.63;4.50;;;22.20;83.00;;;;;;5054491;28;20111;-73
2023/10/04 10:24:57;;;;;;;15.93;4.93;;;22.20;82.50;;;;;;5054480;28;20052;-73
2023/10/04 10:27:25;;;;;;;11.85;4.68;;;22.30;82.00;;;;;;5054560;28;20422;-73
2023/10/04 10:29:51;;;;;;;10.30;4.35;;;22.30;81.20;;;;;;5054066;28;20641;-73
2023/10/04 10:32:22;;;;;;;11.88;4.88;;;22.20;80.90;;;;;;5054334;28;20039;-73
2023/10/04 10:34:57;;;;;;;11.27;5.18;;;22.20;80.60;;;;;;5054151;28;20102;-73
2023/10/04 10:37:24;;;;;;;10.18;4.80;;;22.20;80.60;;;;;;5054228;28;20076;-73
2023/10/04 10:39:52;;;;;;;11.82;5.28;;;22.20;80.40;;;;;;5054004;28;20029;-73
2023/10/04 10:42:19;;;;;;;9.20;5.03;;;22.20;80.90;;;;;;5053921;28;20033;-72
2023/10/04 10:44:45;;;;;;;10.30;4.35;;;22.10;82.00;;;;;;5054115;28;20108;-72
2023/10/04 10:47:17;;;;;;;7.78;4.50;;;22.20;81.50;;;;;;5053568;28;20445;-73
2023/10/04 10:49:44;;;;;;;7.25;4.50;;;22.10;81.60;;;;;;5053709;28;20056;-73
2023/10/04 10:52:20;;;;;;;9.80;4.35;;;22.10;80.60;;;;;;5052701;28;20492;-73
2023/10/04 10:54:47;;;;;;;10.38;4.45;;;22.10;80.50;;;;;;5053889;28;20025;-73
2023/10/04 10:57:13;;;;;;;9.20;4.25;;;22.10;79.90;;;;;;5054077;28;20052;-74
2023/10/04 10:59:40;;;;;;;7.13;4.13;;;22.10;79.80;;;;;;5053698;28;20056;-73
2023/10/04 11:02:06;;;;;;;10.43;4.50;;;22.10;80.10;;;;;;5053789;28;20427;-73
2023/10/04 11:04:32;;;;;;;9.23;4.55;;;22.10;81.00;;;;;;5053769;28;20025;-74
2023/10/04 11:06:58;;;;;;;10.70;4.60;;;22.10;80.00;;;;;;5053782;28;20110;-74
2023/10/04 11:09:24;;;;;;;12.70;4.47;;;22.10;79.60;;;;;;5051415;28;20032;-74
2023/10/04 11:11:51;;;;;;;11.45;4.53;;;22.10;79.90;;;;;;5053478;28;20021;-73
2023/10/04 11:14:19;;;;;;;9.73;4.57;;;22.10;79.60;;;;;;5053468;28;20380;-74
2023/10/04 11:16:45;;;;;;;12.15;4.75;;;22.10;80.10;;;;;;5053392;28;20033;-73
2023/10/04 11:19:12;;;;;;;10.32;4.38;;;22.10;80.20;;;;;;5053562;28;20025;-72
2023/10/04 11:21:39;;;;;;;7.18;4.13;;;22.10;80.40;;;;;;5053640;28;20028;-73
2023/10/04 11:24:05;;;;;;;13.25;4.50;;;22.20;79.90;;;;;;5053276;28;20017;-73
2023/10/04 11:26:38;;;;;;;6.25;4.38;;;22.20;79.90;;;;;;5053283;28;20028;-73
2023/10/04 11:29:04;;;;;;;9.98;4.50;;;22.20;80.00;;;;;;5053272;28;20021;-73
2023/10/04 11:31:30;;;;;;;10.63;4.65;;;22.10;80.10;;;;;;5053233;28;20033;-73
2023/10/04 11:33:55;;;;;;;9.10;4.53;;;22.20;79.80;;;;;;5051833;28;20079;-73
2023/10/04 11:36:25;;;;;;;11.07;5.40;;;22.20;79.30;;;;;;5052621;28;20037;-73
2023/10/04 11:38:52;;;;;;;7.28;4.57;;;22.20;79.20;;;;;;5053164;28;20350;-74
2023/10/04 11:41:19;;;;;;;9.52;4.45;;;22.20;79.60;;;;;;5052281;28;20043;-73
2023/10/04 11:43:46;;;;;;;14.30;4.40;;;22.20;79.40;;;;;;5052605;28;20021;-74
2023/10/04 11:46:12;;;;;;;8.65;4.55;;;22.20;80.00;;;;;;5052505;28;20055;-73
2023/10/04 11:48:38;;;;;;;8.68;4.47;;;22.20;78.80;;;;;;5052394;28;20056;-72
2023/10/04 11:51:04;;;;;;;9.68;4.05;;;22.20;78.30;;;;;;5052756;28;20033;-72
2023/10/04 11:53:34;;;;;;;7.32;3.90;;;22.30;78.50;;;;;;5052434;28;20020;-72
2023/10/04 11:56:03;;;;;;;6.90;3.60;;;22.20;78.10;;;;;;5052266;28;20521;-73
2023/10/04 11:58:30;;;;;;;12.35;4.30;;;22.30;78.30;;;;;;5052434;28;20028;-73
2023/10/04 12:01:08;;;;;;;12.07;3.70;;;22.30;77.20;;;;;;5049733;28;20024;-73
2023/10/04 12:03:38;;;;;;;6.65;3.40;;;22.30;77.90;;;;;;5048191;28;20017;-74
2023/10/04 12:06:05;;;;;;;8.63;3.85;;;22.30;77.20;;;;;;5050430;28;20029;-74
2023/10/04 12:08:30;;;;;;;6.43;3.72;;;22.40;77.10;;;;;;5052047;28;20028;-74
2023/10/04 12:10:56;;;;;;;5.13;3.38;;;22.30;77.00;;;;;;5052364;28;20389;-74
2023/10/04 12:13:23;;;;;;;6.63;3.83;;;22.30;77.10;;;;;;5052333;28;20392;-73
2023/10/04 12:15:49;;;;;;;7.70;3.45;;;22.40;77.10;;;;;;5051552;28;20033;-73
2023/10/04 12:18:15;;;;;;;7.07;3.97;;;22.40;77.60;;;;;;5051925;28;20025;-73
2023/10/04 12:20:44;;;;;;;10.43;4.15;;;22.40;77.80;;;;;;5054597;28;20017;-73
2023/10/04 12:23:11;;;;;;;5.40;3.13;;;22.40;77.90;;;;;;5056029;28;20021;-73
2023/10/04 12:25:43;;;;;;;7.32;3.28;;;22.40;77.70;;;;;;5055704;28;20534;-74
2023/10/04 12:28:09;;;;;;;8.05;3.80;;;22.30;78.30;;;;;;5056252;28;20027;-72
2023/10/04 12:30:35;;;;;;;8.90;4.00;;;22.30;78.30;;;;;;5056467;28;20095;-71
2023/10/04 12:33:02;;;;;;;6.35;3.45;;;22.30;78.10;;;;;;5056400;28;20144;-73
2023/10/04 12:35:28;;;;;;;7.20;3.72;;;22.30;78.20;;;;;;5054755;28;20037;-73
2023/10/04 12:37:54;;;;;;;7.15;3.55;;;22.30;77.70;;;;;;5056124;28;20432;-73
2023/10/04 12:40:26;;;;;;;7.07;3.83;;;22.30;77.40;;;;;;5055870;28;20099;-72
2023/10/04 12:42:52;;;;;;;11.90;5.15;;;22.30;77.70;;;;;;5055877;28;20023;-73
2023/10/04 12:45:19;;;;;;;8.88;3.95;;;22.30;77.80;;;;;;5056028;28;20056;-72